sensor_id;sensor_type;location;lat;lon;timestamp;P1;durP1;ratioP1;P2;durP2;ratioP2
59512;SDS011;45330;51.634;5.562;2023-03-31T00:00:20;13.80;;;3.38;;
59512;SDS011;45330;51.634;5.562;2023-03-31T00:02:45;15.70;;;3.45;;
59512;SDS011;45330;51.634;5.562;2023-03-31T00:05:11;14.40;;;3.42;;
59512;SDS011;45330;51.634;5.562;2023-03-31T00:07:42;15.60;;;4.00;;
59512;SDS011;45330;51.634;5.562;2023-03-31T00:10:10;10.20;;;3.42;;
59512;SDS011;45330;51.634;5.562;2023-03-31T00:12:35;15.20;;;3.30;;
59512;SDS011;45330;51.634;5.562;2023-03-31T00:15:01;12.63;;;3.00;;
59512;SDS011;45330;51.634;5.562;2023-03-31T00:17:26;17.67;;;3.30;;
59512;SDS011;45330;51.634;5.562;2023-03-31T00:19:52;15.23;;;3.55;;
59512;SDS011;45330;51.634;5.562;2023-03-31T00:22:17;14.05;;;3.25;;
59512;SDS011;45330;51.634;5.562;2023-03-31T00:24:46;13.90;;;3.03;;
59512;SDS011;45330;51.634;5.562;2023-03-31T00:27:12;16.38;;;3.28;;
59512;SDS011;45330;51.634;5.562;2023-03-31T00:29:37;14.25;;;3.10;;
59512;SDS011;45330;51.634;5.562;2023-03-31T00:32:06;13.45;;;2.92;;
59512;SDS011;45330;51.634;5.562;2023-03-31T00:34:32;13.85;;;3.67;;
59512;SDS011;45330;51.634;5.562;2023-03-31T00:36:57;14.88;;;2.97;;
59512;SDS011;45330;51.634;5.562;2023-03-31T00:39:26;13.90;;;2.75;;
59512;SDS011;45330;51.634;5.562;2023-03-31T00:41:56;17.15;;;3.17;;
59512;SDS011;45330;51.634;5.562;2023-03-31T00:44:22;11.95;;;2.80;;
59512;SDS011;45330;51.634;5.562;2023-03-31T00:49:39;13.25;;;2.60;;
59512;SDS011;45330;51.634;5.562;2023-03-31T00:52:18;14.70;;;3.63;;
59512;SDS011;45330;51.634;5.562;2023-03-31T00:54:59;14.73;;;3.20;;
59512;SDS011;45330;51.634;5.562;2023-03-31T00:57:29;12.07;;;3.00;;
59512;SDS011;45330;51.634;5.562;2023-03-31T01:00:03;14.30;;;2.90;;
59512;SDS011;45330;51.634;5.562;2023-03-31T01:02:39;13.70;;;2.92;;
59512;SDS011;45330;51.634;5.562;2023-03-31T01:05:05;13.63;;;2.92;;
59512;SDS011;45330;51.634;5.562;2023-03-31T01:07:42;13.82;;;2.95;;
59512;SDS011;45330;51.634;5.562;2023-03-31T01:10:10;14.05;;;3.05;;
59512;SDS011;45330;51.634;5.562;2023-03-31T01:12:37;14.98;;;2.97;;
59512;SDS011;45330;51.634;5.562;2023-03-31T01:15:06;10.13;;;2.75;;
59512;SDS011;45330;51.634;5.562;2023-03-31T01:17:32;14.60;;;3.13;;
59512;SDS011;45330;51.634;5.562;2023-03-31T01:28:39;14.63;;;2.70;;
59512;SDS011;45330;51.634;5.562;2023-03-31T01:31:19;9.48;;;2.80;;
59512;SDS011;45330;51.634;5.562;2023-03-31T01:39:39;11.68;;;2.42;;
59512;SDS011;45330;51.634;5.562;2023-03-31T01:47:44;13.95;;;2.92;;
59512;SDS011;45330;51.634;5.562;2023-03-31T01:52:52;10.75;;;2.78;;
59512;SDS011;45330;51.634;5.562;2023-03-31T01:55:28;17.33;;;2.78;;
59512;SDS011;45330;51.634;5.562;2023-03-31T02:00:28;13.38;;;3.03;;
59512;SDS011;45330;51.634;5.562;2023-03-31T02:03:01;14.77;;;2.75;;
59512;SDS011;45330;51.634;5.562;2023-03-31T02:05:36;17.15;;;3.80;;
59512;SDS011;45330;51.634;5.562;2023-03-31T02:08:11;16.33;;;2.90;;
59512;SDS011;45330;51.634;5.562;2023-03-31T02:10:41;17.40;;;3.00;;
59512;SDS011;45330;51.634;5.562;2023-03-31T02:13:10;17.20;;;3.65;;
59512;SDS011;45330;51.634;5.562;2023-03-31T02:15:39;14.93;;;2.72;;
59512;SDS011;45330;51.634;5.562;2023-03-31T02:18:08;14.93;;;2.65;;
59512;SDS011;45330;51.634;5.562;2023-03-31T02:20:38;13.20;;;2.47;;
59512;SDS011;45330;51.634;5.562;2023-03-31T02:23:11;16.30;;;2.80;;
59512;SDS011;45330;51.634;5.562;2023-03-31T02:25:42;12.20;;;2.40;;
59512;SDS011;45330;51.634;5.562;2023-03-31T02:28:15;14.02;;;2.90;;
59512;SDS011;45330;51.634;5.562;2023-03-31T02:30:48;18.00;;;3.13;;
59512;SDS011;45330;51.634;5.562;2023-03-31T02:33:19;16.17;;;3.75;;
59512;SDS011;45330;51.634;5.562;2023-03-31T02:35:44;15.85;;;2.90;;
59512;SDS011;45330;51.634;5.562;2023-03-31T02:38:10;16.00;;;3.38;;
59512;SDS011;45330;51.634;5.562;2023-03-31T02:40:35;12.50;;;2.88;;
59512;SDS011;45330;51.634;5.562;2023-03-31T02:43:01;16.92;;;3.33;;
59512;SDS011;45330;51.634;5.562;2023-03-31T02:45:39;19.13;;;3.17;;
59512;SDS011;45330;51.634;5.562;2023-03-31T02:48:06;18.58;;;3.58;;
59512;SDS011;45330;51.634;5.562;2023-03-31T03:05:27;19.48;;;3.85;;
59512;SDS011;45330;51.634;5.562;2023-03-31T03:18:56;21.05;;;4.00;;
59512;SDS011;45330;51.634;5.562;2023-03-31T03:21:23;18.75;;;3.75;;
59512;SDS011;45330;51.634;5.562;2023-03-31T03:23:48;19.38;;;3.45;;
59512;SDS011;45330;51.634;5.562;2023-03-31T03:26:13;19.23;;;3.53;;
59512;SDS011;45330;51.634;5.562;2023-03-31T03:28:40;19.50;;;3.22;;
59512;SDS011;45330;51.634;5.562;2023-03-31T03:31:05;19.92;;;4.00;;
59512;SDS011;45330;51.634;5.562;2023-03-31T03:33:33;21.77;;;3.67;;
59512;SDS011;45330;51.634;5.562;2023-03-31T03:35:58;17.25;;;3.40;;
59512;SDS011;45330;51.634;5.562;2023-03-31T03:38:23;21.80;;;4.05;;
59512;SDS011;45330;51.634;5.562;2023-03-31T03:40:51;20.02;;;4.60;;
59512;SDS011;45330;51.634;5.562;2023-03-31T03:43:18;20.60;;;4.05;;
59512;SDS011;45330;51.634;5.562;2023-03-31T03:45:46;14.70;;;3.17;;
59512;SDS011;45330;51.634;5.562;2023-03-31T03:48:15;22.25;;;4.10;;
59512;SDS011;45330;51.634;5.562;2023-03-31T03:50:40;19.75;;;3.65;;
59512;SDS011;45330;51.634;5.562;2023-03-31T03:53:06;18.80;;;3.83;;
59512;SDS011;45330;51.634;5.562;2023-03-31T03:55:32;20.23;;;3.85;;
59512;SDS011;45330;51.634;5.562;2023-03-31T03:57:58;20.17;;;3.80;;
59512;SDS011;45330;51.634;5.562;2023-03-31T04:00:23;18.27;;;3.58;;
59512;SDS011;45330;51.634;5.562;2023-03-31T04:02:49;20.00;;;3.65;;
59512;SDS011;45330;51.634;5.562;2023-03-31T04:05:15;20.17;;;3.75;;
59512;SDS011;45330;51.634;5.562;2023-03-31T04:07:40;20.85;;;3.58;;
59512;SDS011;45330;51.634;5.562;2023-03-31T04:10:06;16.83;;;3.60;;
59512;SDS011;45330;51.634;5.562;2023-03-31T04:12:35;17.00;;;3.67;;
59512;SDS011;45330;51.634;5.562;2023-03-31T04:15:00;18.70;;;3.67;;
59512;SDS011;45330;51.634;5.562;2023-03-31T04:17:26;16.77;;;3.65;;
59512;SDS011;45330;51.634;5.562;2023-03-31T04:19:59;15.88;;;3.05;;
59512;SDS011;45330;51.634;5.562;2023-03-31T04:22:30;19.83;;;2.92;;
59512;SDS011;45330;51.634;5.562;2023-03-31T04:25:05;18.42;;;3.30;;
59512;SDS011;45330;51.634;5.562;2023-03-31T04:27:54;20.60;;;3.60;;
59512;SDS011;45330;51.634;5.562;2023-03-31T04:30:20;16.98;;;2.90;;
59512;SDS011;45330;51.634;5.562;2023-03-31T04:32:54;17.45;;;3.17;;
59512;SDS011;45330;51.634;5.562;2023-03-31T04:35:21;25.95;;;3.90;;
59512;SDS011;45330;51.634;5.562;2023-03-31T04:37:49;17.58;;;3.20;;
59512;SDS011;45330;51.634;5.562;2023-03-31T04:40:16;16.17;;;2.92;;
59512;SDS011;45330;51.634;5.562;2023-03-31T04:42:42;23.17;;;3.47;;
59512;SDS011;45330;51.634;5.562;2023-03-31T04:45:08;16.92;;;3.60;;
59512;SDS011;45330;51.634;5.562;2023-03-31T04:47:35;17.30;;;3.85;;
59512;SDS011;45330;51.634;5.562;2023-03-31T04:50:01;17.02;;;3.08;;
59512;SDS011;45330;51.634;5.562;2023-03-31T04:52:27;15.95;;;2.90;;
59512;SDS011;45330;51.634;5.562;2023-03-31T04:54:52;15.93;;;2.85;;
59512;SDS011;45330;51.634;5.562;2023-03-31T04:57:18;15.70;;;3.47;;
59512;SDS011;45330;51.634;5.562;2023-03-31T04:59:43;17.85;;;3.15;;
59512;SDS011;45330;51.634;5.562;2023-03-31T05:02:08;15.90;;;2.90;;
59512;SDS011;45330;51.634;5.562;2023-03-31T05:04:34;15.95;;;3.00;;
59512;SDS011;45330;51.634;5.562;2023-03-31T05:07:00;16.35;;;3.28;;
59512;SDS011;45330;51.634;5.562;2023-03-31T05:09:25;15.73;;;3.13;;
59512;SDS011;45330;51.634;5.562;2023-03-31T05:11:50;14.15;;;2.67;;
59512;SDS011;45330;51.634;5.562;2023-03-31T05:14:16;13.85;;;2.58;;
59512;SDS011;45330;51.634;5.562;2023-03-31T05:16:41;13.07;;;2.90;;
59512;SDS011;45330;51.634;5.562;2023-03-31T05:19:07;14.20;;;2.67;;
59512;SDS011;45330;51.634;5.562;2023-03-31T05:21:32;19.58;;;3.17;;
59512;SDS011;45330;51.634;5.562;2023-03-31T05:23:57;16.67;;;3.28;;
59512;SDS011;45330;51.634;5.562;2023-03-31T05:26:23;18.88;;;2.90;;
59512;SDS011;45330;51.634;5.562;2023-03-31T05:28:53;17.23;;;2.95;;
59512;SDS011;45330;51.634;5.562;2023-03-31T05:31:18;16.40;;;2.83;;
59512;SDS011;45330;51.634;5.562;2023-03-31T05:33:44;15.32;;;2.67;;
59512;SDS011;45330;51.634;5.562;2023-03-31T05:36:11;14.30;;;3.00;;
59512;SDS011;45330;51.634;5.562;2023-03-31T05:38:38;12.18;;;2.63;;
59512;SDS011;45330;51.634;5.562;2023-03-31T05:41:04;12.80;;;2.70;;
59512;SDS011;45330;51.634;5.562;2023-03-31T05:43:31;14.68;;;2.78;;
59512;SDS011;45330;51.634;5.562;2023-03-31T05:45:56;14.93;;;3.20;;
59512;SDS011;45330;51.634;5.562;2023-03-31T05:48:22;13.60;;;2.88;;
59512;SDS011;45330;51.634;5.562;2023-03-31T05:50:47;14.90;;;2.67;;
59512;SDS011;45330;51.634;5.562;2023-03-31T05:53:12;17.35;;;3.00;;
59512;SDS011;45330;51.634;5.562;2023-03-31T05:55:38;13.52;;;2.72;;
59512;SDS011;45330;51.634;5.562;2023-03-31T05:58:04;12.80;;;2.70;;
59512;SDS011;45330;51.634;5.562;2023-03-31T06:00:30;16.08;;;2.80;;
59512;SDS011;45330;51.634;5.562;2023-03-31T06:02:56;14.52;;;2.80;;
59512;SDS011;45330;51.634;5.562;2023-03-31T06:05:23;12.82;;;2.85;;
59512;SDS011;45330;51.634;5.562;2023-03-31T06:07:50;11.70;;;2.65;;
59512;SDS011;45330;51.634;5.562;2023-03-31T06:10:16;11.98;;;2.67;;
59512;SDS011;45330;51.634;5.562;2023-03-31T06:12:42;14.50;;;2.58;;
59512;SDS011;45330;51.634;5.562;2023-03-31T06:15:07;13.50;;;2.85;;
59512;SDS011;45330;51.634;5.562;2023-03-31T06:17:33;14.60;;;2.80;;
59512;SDS011;45330;51.634;5.562;2023-03-31T06:19:58;10.95;;;3.13;;
59512;SDS011;45330;51.634;5.562;2023-03-31T06:22:23;16.38;;;2.97;;
59512;SDS011;45330;51.634;5.562;2023-03-31T06:24:49;10.43;;;2.90;;
59512;SDS011;45330;51.634;5.562;2023-03-31T06:27:14;11.82;;;2.85;;
59512;SDS011;45330;51.634;5.562;2023-03-31T06:29:40;16.17;;;3.08;;
59512;SDS011;45330;51.634;5.562;2023-03-31T06:32:05;14.63;;;3.90;;
59512;SDS011;45330;51.634;5.562;2023-03-31T06:34:30;13.45;;;3.00;;
59512;SDS011;45330;51.634;5.562;2023-03-31T06:36:56;15.73;;;3.03;;
59512;SDS011;45330;51.634;5.562;2023-03-31T06:39:21;16.40;;;3.33;;
59512;SDS011;45330;51.634;5.562;2023-03-31T06:41:46;11.82;;;3.15;;
59512;SDS011;45330;51.634;5.562;2023-03-31T06:44:12;15.73;;;3.63;;
59512;SDS011;45330;51.634;5.562;2023-03-31T06:46:40;12.65;;;2.90;;
59512;SDS011;45330;51.634;5.562;2023-03-31T06:49:06;11.95;;;2.70;;
59512;SDS011;45330;51.634;5.562;2023-03-31T06:51:31;15.68;;;3.33;;
59512;SDS011;45330;51.634;5.562;2023-03-31T06:53:56;14.93;;;3.05;;
59512;SDS011;45330;51.634;5.562;2023-03-31T06:56:22;13.27;;;3.17;;
59512;SDS011;45330;51.634;5.562;2023-03-31T06:58:47;10.85;;;2.95;;
59512;SDS011;45330;51.634;5.562;2023-03-31T07:01:13;11.43;;;2.90;;
59512;SDS011;45330;51.634;5.562;2023-03-31T07:03:38;12.50;;;3.42;;
59512;SDS011;45330;51.634;5.562;2023-03-31T07:06:03;10.60;;;2.83;;
59512;SDS011;45330;51.634;5.562;2023-03-31T07:08:29;13.00;;;3.17;;
59512;SDS011;45330;51.634;5.562;2023-03-31T07:10:56;15.10;;;3.00;;
59512;SDS011;45330;51.634;5.562;2023-03-31T07:13:23;15.48;;;4.00;;
59512;SDS011;45330;51.634;5.562;2023-03-31T07:15:49;15.40;;;3.20;;
59512;SDS011;45330;51.634;5.562;2023-03-31T07:18:15;11.13;;;3.25;;
59512;SDS011;45330;51.634;5.562;2023-03-31T07:20:43;11.65;;;3.38;;
59512;SDS011;45330;51.634;5.562;2023-03-31T07:23:11;14.48;;;3.50;;
59512;SDS011;45330;51.634;5.562;2023-03-31T07:25:36;14.77;;;4.28;;
59512;SDS011;45330;51.634;5.562;2023-03-31T07:28:02;14.25;;;3.92;;
59512;SDS011;45330;51.634;5.562;2023-03-31T07:30:28;17.00;;;4.20;;
59512;SDS011;45330;51.634;5.562;2023-03-31T07:32:54;15.50;;;3.70;;
59512;SDS011;45330;51.634;5.562;2023-03-31T07:35:19;15.85;;;4.22;;
59512;SDS011;45330;51.634;5.562;2023-03-31T07:37:46;18.13;;;4.35;;
59512;SDS011;45330;51.634;5.562;2023-03-31T07:40:14;18.60;;;4.68;;
59512;SDS011;45330;51.634;5.562;2023-03-31T07:42:42;17.02;;;4.20;;
59512;SDS011;45330;51.634;5.562;2023-03-31T07:45:08;14.57;;;4.20;;
59512;SDS011;45330;51.634;5.562;2023-03-31T07:47:35;19.20;;;4.65;;
59512;SDS011;45330;51.634;5.562;2023-03-31T07:50:01;21.27;;;4.72;;
59512;SDS011;45330;51.634;5.562;2023-03-31T07:52:26;19.30;;;4.20;;
59512;SDS011;45330;51.634;5.562;2023-03-31T07:54:52;19.00;;;4.00;;
59512;SDS011;45330;51.634;5.562;2023-03-31T07:57:17;18.15;;;4.05;;
59512;SDS011;45330;51.634;5.562;2023-03-31T07:59:43;18.42;;;3.88;;
59512;SDS011;45330;51.634;5.562;2023-03-31T08:02:10;19.83;;;3.72;;
59512;SDS011;45330;51.634;5.562;2023-03-31T08:04:37;15.77;;;3.50;;
59512;SDS011;45330;51.634;5.562;2023-03-31T08:07:06;17.60;;;3.20;;
59512;SDS011;45330;51.634;5.562;2023-03-31T08:09:31;16.83;;;3.67;;
59512;SDS011;45330;51.634;5.562;2023-03-31T08:11:57;18.73;;;3.30;;
59512;SDS011;45330;51.634;5.562;2023-03-31T08:14:22;16.38;;;3.10;;
59512;SDS011;45330;51.634;5.562;2023-03-31T08:16:47;19.23;;;3.90;;
59512;SDS011;45330;51.634;5.562;2023-03-31T08:19:13;15.75;;;3.25;;
59512;SDS011;45330;51.634;5.562;2023-03-31T08:21:38;21.08;;;3.83;;
59512;SDS011;45330;51.634;5.562;2023-03-31T08:24:04;20.05;;;3.67;;
59512;SDS011;45330;51.634;5.562;2023-03-31T08:26:30;18.52;;;4.28;;
59512;SDS011;45330;51.634;5.562;2023-03-31T08:28:57;17.95;;;3.75;;
59512;SDS011;45330;51.634;5.562;2023-03-31T08:31:23;21.05;;;3.92;;
59512;SDS011;45330;51.634;5.562;2023-03-31T08:33:48;21.90;;;4.20;;
59512;SDS011;45330;51.634;5.562;2023-03-31T08:36:14;22.13;;;4.53;;
59512;SDS011;45330;51.634;5.562;2023-03-31T08:38:40;23.17;;;4.57;;
59512;SDS011;45330;51.634;5.562;2023-03-31T08:44:03;20.02;;;3.80;;
59512;SDS011;45330;51.634;5.562;2023-03-31T08:46:32;20.95;;;3.95;;
59512;SDS011;45330;51.634;5.562;2023-03-31T08:48:59;24.65;;;4.60;;
59512;SDS011;45330;51.634;5.562;2023-03-31T08:51:31;20.05;;;5.18;;
59512;SDS011;45330;51.634;5.562;2023-03-31T08:54:03;22.38;;;4.65;;
59512;SDS011;45330;51.634;5.562;2023-03-31T08:56:37;22.23;;;4.78;;
59512;SDS011;45330;51.634;5.562;2023-03-31T08:59:12;22.85;;;4.32;;
59512;SDS011;45330;51.634;5.562;2023-03-31T09:01:46;21.38;;;3.70;;
59512;SDS011;45330;51.634;5.562;2023-03-31T09:09:56;21.38;;;4.03;;
59512;SDS011;45330;51.634;5.562;2023-03-31T09:15:16;22.63;;;4.57;;
59512;SDS011;45330;51.634;5.562;2023-03-31T09:17:52;21.73;;;3.97;;
59512;SDS011;45330;51.634;5.562;2023-03-31T09:26:02;21.27;;;4.10;;
59512;SDS011;45330;51.634;5.562;2023-03-31T09:28:30;20.35;;;4.47;;
59512;SDS011;45330;51.634;5.562;2023-03-31T09:31:10;20.25;;;3.80;;
59512;SDS011;45330;51.634;5.562;2023-03-31T09:33:39;21.25;;;3.80;;
59512;SDS011;45330;51.634;5.562;2023-03-31T09:36:15;22.70;;;4.38;;
59512;SDS011;45330;51.634;5.562;2023-03-31T09:38:43;18.08;;;3.92;;
59512;SDS011;45330;51.634;5.562;2023-03-31T09:41:10;21.60;;;3.92;;
59512;SDS011;45330;51.634;5.562;2023-03-31T09:43:36;19.83;;;3.33;;
59512;SDS011;45330;51.634;5.562;2023-03-31T09:46:15;17.52;;;3.67;;
59512;SDS011;45330;51.634;5.562;2023-03-31T09:48:51;21.17;;;4.18;;
59512;SDS011;45330;51.634;5.562;2023-03-31T09:51:40;21.27;;;3.53;;
59512;SDS011;45330;51.634;5.562;2023-03-31T09:54:53;20.10;;;3.45;;
59512;SDS011;45330;51.634;5.562;2023-03-31T09:57:01;18.08;;;3.08;;
59512;SDS011;45330;51.634;5.562;2023-03-31T09:59:33;18.42;;;3.80;;
59512;SDS011;45330;51.634;5.562;2023-03-31T10:02:01;19.52;;;3.97;;
59512;SDS011;45330;51.634;5.562;2023-03-31T10:04:31;18.95;;;3.60;;
59512;SDS011;45330;51.634;5.562;2023-03-31T10:06:58;18.88;;;3.40;;
59512;SDS011;45330;51.634;5.562;2023-03-31T10:09:26;18.38;;;3.65;;
59512;SDS011;45330;51.634;5.562;2023-03-31T10:11:57;16.95;;;3.17;;
59512;SDS011;45330;51.634;5.562;2023-03-31T10:14:38;18.90;;;3.88;;
59512;SDS011;45330;51.634;5.562;2023-03-31T10:17:05;18.83;;;3.45;;
59512;SDS011;45330;51.634;5.562;2023-03-31T10:19:35;15.32;;;3.10;;
59512;SDS011;45330;51.634;5.562;2023-03-31T10:22:03;17.17;;;3.23;;
59512;SDS011;45330;51.634;5.562;2023-03-31T10:24:49;16.38;;;3.17;;
59512;SDS011;45330;51.634;5.562;2023-03-31T10:29:41;16.90;;;3.35;;
59512;SDS011;45330;51.634;5.562;2023-03-31T10:34:44;18.48;;;2.85;;
59512;SDS011;45330;51.634;5.562;2023-03-31T10:37:12;11.38;;;2.72;;
59512;SDS011;45330;51.634;5.562;2023-03-31T10:42:07;16.15;;;2.97;;
59512;SDS011;45330;51.634;5.562;2023-03-31T10:44:34;16.40;;;4.03;;
59512;SDS011;45330;51.634;5.562;2023-03-31T10:47:03;16.15;;;2.83;;
59512;SDS011;45330;51.634;5.562;2023-03-31T10:49:33;17.20;;;3.08;;
59512;SDS011;45330;51.634;5.562;2023-03-31T10:52:02;17.00;;;3.10;;
59512;SDS011;45330;51.634;5.562;2023-03-31T10:54:27;17.40;;;3.30;;
59512;SDS011;45330;51.634;5.562;2023-03-31T10:56:54;17.25;;;3.15;;
59512;SDS011;45330;51.634;5.562;2023-03-31T11:05:14;14.85;;;2.92;;
59512;SDS011;45330;51.634;5.562;2023-03-31T11:26:28;18.00;;;3.50;;
59512;SDS011;45330;51.634;5.562;2023-03-31T11:29:07;16.42;;;3.35;;
59512;SDS011;45330;51.634;5.562;2023-03-31T11:34:36;16.70;;;2.67;;
59512;SDS011;45330;51.634;5.562;2023-03-31T11:37:23;18.88;;;4.28;;
59512;SDS011;45330;51.634;5.562;2023-03-31T11:40:12;17.45;;;3.47;;
59512;SDS011;45330;51.634;5.562;2023-03-31T11:45:27;18.42;;;3.50;;
59512;SDS011;45330;51.634;5.562;2023-03-31T11:47:59;13.77;;;2.72;;
59512;SDS011;45330;51.634;5.562;2023-03-31T11:50:31;16.92;;;3.70;;
59512;SDS011;45330;51.634;5.562;2023-03-31T11:53:04;18.38;;;3.53;;
59512;SDS011;45330;51.634;5.562;2023-03-31T11:55:42;19.05;;;3.60;;
59512;SDS011;45330;51.634;5.562;2023-03-31T11:58:13;18.27;;;3.33;;
59512;SDS011;45330;51.634;5.562;2023-03-31T12:00:57;18.02;;;3.28;;
59512;SDS011;45330;51.634;5.562;2023-03-31T12:06:08;18.85;;;3.70;;
59512;SDS011;45330;51.634;5.562;2023-03-31T12:11:23;18.17;;;3.33;;
59512;SDS011;45330;51.634;5.562;2023-03-31T12:16:45;19.85;;;3.47;;
59512;SDS011;45330;51.634;5.562;2023-03-31T12:19:16;13.65;;;2.72;;
59512;SDS011;45330;51.634;5.562;2023-03-31T12:21:49;13.27;;;2.50;;
59512;SDS011;45330;51.634;5.562;2023-03-31T12:24:18;16.20;;;2.70;;
59512;SDS011;45330;51.634;5.562;2023-03-31T12:32:13;15.10;;;2.90;;
59512;SDS011;45330;51.634;5.562;2023-03-31T12:35:01;12.75;;;2.40;;
59512;SDS011;45330;51.634;5.562;2023-03-31T12:45:50;17.15;;;2.72;;
59512;SDS011;45330;51.634;5.562;2023-03-31T12:48:33;13.50;;;2.70;;
59512;SDS011;45330;51.634;5.562;2023-03-31T12:53:42;11.60;;;2.63;;
59512;SDS011;45330;51.634;5.562;2023-03-31T12:57:01;13.30;;;2.67;;
59512;SDS011;45330;51.634;5.562;2023-03-31T13:04:34;12.35;;;2.53;;
59512;SDS011;45330;51.634;5.562;2023-03-31T13:07:01;13.88;;;2.67;;
59512;SDS011;45330;51.634;5.562;2023-03-31T13:09:38;11.98;;;2.28;;
59512;SDS011;45330;51.634;5.562;2023-03-31T13:12:07;14.57;;;2.42;;
59512;SDS011;45330;51.634;5.562;2023-03-31T13:14:38;13.50;;;2.60;;
59512;SDS011;45330;51.634;5.562;2023-03-31T13:17:19;16.15;;;3.17;;
59512;SDS011;45330;51.634;5.562;2023-03-31T13:22:47;12.90;;;2.80;;
59512;SDS011;45330;51.634;5.562;2023-03-31T13:27:55;15.50;;;3.28;;
59512;SDS011;45330;51.634;5.562;2023-03-31T13:33:12;16.10;;;2.80;;
59512;SDS011;45330;51.634;5.562;2023-03-31T13:35:43;13.43;;;2.80;;
59512;SDS011;45330;51.634;5.562;2023-03-31T13:40:59;8.02;;;2.00;;
59512;SDS011;45330;51.634;5.562;2023-03-31T13:46:26;14.25;;;2.53;;
59512;SDS011;45330;51.634;5.562;2023-03-31T13:49:34;9.18;;;2.15;;
59512;SDS011;45330;51.634;5.562;2023-03-31T13:52:11;9.75;;;2.00;;
59512;SDS011;45330;51.634;5.562;2023-03-31T14:00:36;9.48;;;2.15;;
59512;SDS011;45330;51.634;5.562;2023-03-31T14:05:44;11.57;;;2.50;;
59512;SDS011;45330;51.634;5.562;2023-03-31T14:14:10;13.00;;;2.13;;
59512;SDS011;45330;51.634;5.562;2023-03-31T14:30:00;9.52;;;2.00;;
59512;SDS011;45330;51.634;5.562;2023-03-31T14:38:40;9.18;;;2.05;;
59512;SDS011;45330;51.634;5.562;2023-03-31T14:41:06;9.55;;;2.10;;
59512;SDS011;45330;51.634;5.562;2023-03-31T14:43:45;10.80;;;2.55;;
59512;SDS011;45330;51.634;5.562;2023-03-31T14:46:17;11.23;;;2.05;;
59512;SDS011;45330;51.634;5.562;2023-03-31T14:48:44;12.77;;;2.28;;
59512;SDS011;45330;51.634;5.562;2023-03-31T14:51:13;11.35;;;2.17;;
59512;SDS011;45330;51.634;5.562;2023-03-31T14:53:40;10.43;;;2.17;;
59512;SDS011;45330;51.634;5.562;2023-03-31T14:56:11;10.07;;;2.20;;
59512;SDS011;45330;51.634;5.562;2023-03-31T14:58:43;8.75;;;1.98;;
59512;SDS011;45330;51.634;5.562;2023-03-31T15:01:14;10.00;;;2.20;;
59512;SDS011;45330;51.634;5.562;2023-03-31T15:03:43;7.00;;;1.55;;
59512;SDS011;45330;51.634;5.562;2023-03-31T15:06:10;7.18;;;1.70;;
59512;SDS011;45330;51.634;5.562;2023-03-31T15:08:37;5.10;;;1.50;;
59512;SDS011;45330;51.634;5.562;2023-03-31T15:11:04;3.83;;;1.58;;
59512;SDS011;45330;51.634;5.562;2023-03-31T15:13:34;5.10;;;1.50;;
59512;SDS011;45330;51.634;5.562;2023-03-31T15:16:19;5.47;;;1.30;;
59512;SDS011;45330;51.634;5.562;2023-03-31T15:22:01;2.95;;;1.27;;
59512;SDS011;45330;51.634;5.562;2023-03-31T15:24:29;4.25;;;1.15;;
59512;SDS011;45330;51.634;5.562;2023-03-31T15:27:00;8.35;;;1.33;;
59512;SDS011;45330;51.634;5.562;2023-03-31T15:32:00;5.57;;;1.27;;
59512;SDS011;45330;51.634;5.562;2023-03-31T15:34:36;4.38;;;1.10;;
59512;SDS011;45330;51.634;5.562;2023-03-31T15:37:02;2.60;;;1.00;;
59512;SDS011;45330;51.634;5.562;2023-03-31T15:39:31;4.50;;;1.30;;
59512;SDS011;45330;51.634;5.562;2023-03-31T15:42:00;3.13;;;1.05;;
59512;SDS011;45330;51.634;5.562;2023-03-31T15:44:34;3.28;;;1.20;;
59512;SDS011;45330;51.634;5.562;2023-03-31T15:47:20;7.07;;;1.20;;
59512;SDS011;45330;51.634;5.562;2023-03-31T15:52:30;2.15;;;1.05;;
59512;SDS011;45330;51.634;5.562;2023-03-31T15:54:59;3.50;;;1.23;;
59512;SDS011;45330;51.634;5.562;2023-03-31T15:57:33;4.03;;;1.20;;
59512;SDS011;45330;51.634;5.562;2023-03-31T16:00:00;1.88;;;1.00;;
59512;SDS011;45330;51.634;5.562;2023-03-31T16:02:33;2.83;;;1.20;;
59512;SDS011;45330;51.634;5.562;2023-03-31T16:05:04;9.25;;;1.45;;
59512;SDS011;45330;51.634;5.562;2023-03-31T16:07:31;3.58;;;1.38;;
59512;SDS011;45330;51.634;5.562;2023-03-31T16:10:00;2.53;;;1.23;;
59512;SDS011;45330;51.634;5.562;2023-03-31T16:12:35;5.50;;;1.50;;
59512;SDS011;45330;51.634;5.562;2023-03-31T16:17:37;3.75;;;1.50;;
59512;SDS011;45330;51.634;5.562;2023-03-31T16:22:45;4.32;;;1.25;;
59512;SDS011;45330;51.634;5.562;2023-03-31T16:25:14;3.85;;;1.80;;
59512;SDS011;45330;51.634;5.562;2023-03-31T16:27:45;7.18;;;2.25;;
59512;SDS011;45330;51.634;5.562;2023-03-31T16:30:15;3.55;;;1.17;;
59512;SDS011;45330;51.634;5.562;2023-03-31T16:32:57;8.60;;;1.70;;
59512;SDS011;45330;51.634;5.562;2023-03-31T16:35:28;5.07;;;1.20;;
59512;SDS011;45330;51.634;5.562;2023-03-31T16:37:57;3.40;;;1.13;;
59512;SDS011;45330;51.634;5.562;2023-03-31T16:40:25;3.72;;;1.25;;
59512;SDS011;45330;51.634;5.562;2023-03-31T16:43:07;2.60;;;1.38;;
59512;SDS011;45330;51.634;5.562;2023-03-31T16:45:55;3.33;;;1.45;;
59512;SDS011;45330;51.634;5.562;2023-03-31T16:48:26;6.30;;;1.85;;
59512;SDS011;45330;51.634;5.562;2023-03-31T16:50:56;3.47;;;1.30;;
59512;SDS011;45330;51.634;5.562;2023-03-31T16:53:24;3.40;;;1.20;;
59512;SDS011;45330;51.634;5.562;2023-03-31T16:55:51;5.95;;;1.40;;
59512;SDS011;45330;51.634;5.562;2023-03-31T16:58:17;2.85;;;1.20;;
59512;SDS011;45330;51.634;5.562;2023-03-31T17:00:43;6.25;;;1.50;;
59512;SDS011;45330;51.634;5.562;2023-03-31T17:03:09;4.32;;;1.45;;
59512;SDS011;45330;51.634;5.562;2023-03-31T17:05:39;8.32;;;1.70;;
59512;SDS011;45330;51.634;5.562;2023-03-31T17:08:07;5.00;;;1.60;;
59512;SDS011;45330;51.634;5.562;2023-03-31T17:10:34;3.13;;;1.50;;
59512;SDS011;45330;51.634;5.562;2023-03-31T17:13:00;7.03;;;1.50;;
59512;SDS011;45330;51.634;5.562;2023-03-31T17:15:25;5.85;;;1.80;;
59512;SDS011;45330;51.634;5.562;2023-03-31T17:17:53;6.53;;;1.95;;
59512;SDS011;45330;51.634;5.562;2023-03-31T17:20:18;7.47;;;1.80;;
59512;SDS011;45330;51.634;5.562;2023-03-31T17:22:44;6.40;;;2.05;;
59512;SDS011;45330;51.634;5.562;2023-03-31T17:25:10;9.07;;;2.50;;
59512;SDS011;45330;51.634;5.562;2023-03-31T17:27:36;7.30;;;1.60;;
59512;SDS011;45330;51.634;5.562;2023-03-31T17:30:03;6.78;;;1.95;;
59512;SDS011;45330;51.634;5.562;2023-03-31T17:32:29;6.72;;;1.58;;
59512;SDS011;45330;51.634;5.562;2023-03-31T17:34:55;8.48;;;1.52;;
59512;SDS011;45330;51.634;5.562;2023-03-31T17:37:20;4.53;;;1.45;;
59512;SDS011;45330;51.634;5.562;2023-03-31T17:39:46;6.93;;;1.70;;
59512;SDS011;45330;51.634;5.562;2023-03-31T17:42:12;11.60;;;1.90;;
59512;SDS011;45330;51.634;5.562;2023-03-31T17:44:38;6.63;;;2.00;;
59512;SDS011;45330;51.634;5.562;2023-03-31T17:47:05;6.80;;;1.80;;
59512;SDS011;45330;51.634;5.562;2023-03-31T17:49:30;7.00;;;1.75;;
59512;SDS011;45330;51.634;5.562;2023-03-31T17:51:57;6.20;;;1.83;;
59512;SDS011;45330;51.634;5.562;2023-03-31T17:54:23;6.35;;;1.90;;
59512;SDS011;45330;51.634;5.562;2023-03-31T17:56:48;7.80;;;2.10;;
59512;SDS011;45330;51.634;5.562;2023-03-31T17:59:14;8.10;;;2.40;;
59512;SDS011;45330;51.634;5.562;2023-03-31T18:01:40;6.90;;;1.80;;
59512;SDS011;45330;51.634;5.562;2023-03-31T18:04:06;6.88;;;1.92;;
59512;SDS011;45330;51.634;5.562;2023-03-31T18:06:31;8.38;;;2.10;;
59512;SDS011;45330;51.634;5.562;2023-03-31T18:08:57;5.93;;;1.80;;